createdAt,value
2019-02-12T00:02:13.707Z,18.40
2019-02-12T00:04:40.957Z,21.13
2019-02-12T00:07:08.399Z,19.77
2019-02-12T00:09:36.017Z,15.13
2019-02-12T00:12:03.356Z,15.83
2019-02-12T00:14:30.605Z,15.90
2019-02-12T00:16:57.829Z,15.47
2019-02-12T00:19:25.147Z,14.93
2019-02-12T00:21:52.357Z,16.50
2019-02-12T00:24:19.594Z,13.53
2019-02-12T00:26:46.817Z,13.37
2019-02-12T00:29:13.944Z,17.30
2019-02-12T00:31:41.240Z,15.43
2019-02-12T00:34:08.459Z,17.20
2019-02-12T00:36:35.725Z,17.57
2019-02-12T00:39:04.891Z,14.10
2019-02-12T00:41:32.138Z,15.23
2019-02-12T00:43:59.365Z,18.97
2019-02-12T00:46:26.703Z,16.10
2019-02-12T00:48:53.930Z,16.00
2019-02-12T00:51:21.171Z,14.90
2019-02-12T00:53:48.748Z,19.77
2019-02-12T00:56:16.010Z,16.20
2019-02-12T00:58:43.233Z,14.80
2019-02-12T01:01:10.371Z,13.53
2019-02-12T01:03:37.970Z,15.93
2019-02-12T01:06:05.312Z,13.30
2019-02-12T01:08:32.535Z,18.13
2019-02-12T01:10:59.779Z,15.37
2019-02-12T01:13:26.992Z,18.20
2019-02-12T01:15:54.231Z,17.83
2019-02-12T01:18:21.696Z,21.20
2019-02-12T01:20:48.941Z,20.37
2019-02-12T01:23:16.164Z,14.20
2019-02-12T01:25:43.413Z,19.47
2019-02-12T01:28:10.623Z,14.60
2019-02-12T01:30:37.896Z,16.73
2019-02-12T01:33:05.216Z,19.60
2019-02-12T01:35:32.463Z,15.67
2019-02-12T01:37:59.679Z,16.33
2019-02-12T01:40:26.916Z,14.70
2019-02-12T01:42:54.247Z,13.70
2019-02-12T01:45:21.568Z,14.90
2019-02-12T01:47:48.800Z,14.17
2019-02-12T01:50:16.032Z,20.10
2019-02-12T01:52:43.164Z,19.17
2019-02-12T01:55:10.485Z,17.17
2019-02-12T01:57:38.012Z,15.93
2019-02-12T02:00:07.069Z,19.90
2019-02-12T02:02:34.290Z,14.30
2019-02-12T02:05:01.589Z,17.30
2019-02-12T02:07:28.809Z,17.80
2019-02-12T02:09:56.031Z,19.43
2019-02-12T02:12:23.265Z,19.13
2019-02-12T02:14:50.559Z,16.10
2019-02-12T02:17:17.879Z,12.70
2019-02-12T02:19:45.188Z,15.10
2019-02-12T02:22:12.432Z,17.67
2019-02-12T02:24:39.656Z,20.20
2019-02-12T02:27:06.912Z,19.13
2019-02-12T02:29:34.131Z,18.00
2019-02-12T02:32:01.375Z,23.07
2019-02-12T02:34:28.603Z,15.97
2019-02-12T02:36:55.863Z,19.10
2019-02-12T02:39:23.172Z,19.87
2019-02-12T02:41:50.424Z,17.03
2019-02-12T02:44:17.641Z,16.00
2019-02-12T02:46:44.900Z,21.77
2019-02-12T02:49:12.129Z,20.13
2019-02-12T02:51:39.474Z,19.23
2019-02-12T02:54:06.693Z,14.90
2019-02-12T02:56:34.204Z,22.53
2019-02-12T02:59:01.417Z,18.27
2019-02-12T03:01:28.660Z,17.73
2019-02-12T03:03:55.890Z,17.53
2019-02-12T03:06:23.521Z,26.00
2019-02-12T03:08:50.748Z,19.57
2019-02-12T03:11:18.011Z,16.03
2019-02-12T03:13:45.247Z,18.53
2019-02-12T03:16:12.553Z,13.87
2019-02-12T03:18:39.786Z,16.00
2019-02-12T03:21:06.939Z,16.47
2019-02-12T03:23:34.163Z,16.73
2019-02-12T03:26:01.396Z,15.27
2019-02-12T03:28:28.640Z,17.70
2019-02-12T03:30:55.960Z,10.83
2019-02-12T03:33:23.224Z,18.60
2019-02-12T03:35:50.540Z,19.97
2019-02-12T03:38:18.094Z,22.70
2019-02-12T03:40:45.672Z,25.30
2019-02-12T03:43:12.919Z,25.77
2019-02-12T03:45:40.150Z,20.13
2019-02-12T03:48:07.711Z,20.60
2019-02-12T03:50:34.928Z,21.13
2019-02-12T03:53:02.183Z,21.13
2019-02-12T03:55:29.403Z,24.37
2019-02-12T03:57:56.723Z,26.43
2019-02-12T04:00:23.941Z,22.00
2019-02-12T04:02:59.609Z,17.80
2019-02-12T04:05:27.388Z,26.03
2019-02-12T04:07:55.043Z,21.90
2019-02-12T04:10:22.261Z,20.07
2019-02-12T04:12:49.589Z,22.87
2019-02-12T04:15:16.815Z,20.97
2019-02-12T04:17:44.046Z,20.87
2019-02-12T04:20:11.284Z,24.47
2019-02-12T04:22:38.499Z,18.60
2019-02-12T04:25:05.752Z,23.83
2019-02-12T04:27:32.963Z,19.83
2019-02-12T04:30:00.310Z,24.07
2019-02-12T04:32:27.823Z,20.27
2019-02-12T04:34:55.219Z,21.27
2019-02-12T04:37:22.455Z,20.53
2019-02-12T04:39:49.682Z,22.00
2019-02-12T04:42:16.909Z,22.47
2019-02-12T04:44:44.127Z,26.30
2019-02-12T04:47:11.355Z,27.37
2019-02-12T04:49:38.709Z,29.13
2019-02-12T04:52:06.292Z,26.23
2019-02-12T04:54:33.521Z,29.10
2019-02-12T04:57:00.750Z,30.57
2019-02-12T04:59:27.961Z,26.23
2019-02-12T05:01:55.260Z,24.73
2019-02-12T05:04:22.547Z,23.40
2019-02-12T05:06:49.766Z,24.20
2019-02-12T05:09:18.888Z,28.30
2019-02-12T05:11:57.577Z,24.77
2019-02-12T05:14:24.835Z,25.90
2019-02-12T05:16:52.096Z,35.57
2019-02-12T05:19:19.437Z,27.40
2019-02-12T05:21:46.796Z,23.13
2019-02-12T05:24:14.092Z,27.67
2019-02-12T05:26:41.313Z,25.30
2019-02-12T05:29:08.812Z,26.07
2019-02-12T05:31:36.048Z,25.90
2019-02-12T05:34:03.287Z,26.40
2019-02-12T05:36:30.510Z,30.07
2019-02-12T05:38:57.736Z,34.70
2019-02-12T05:41:24.953Z,32.77
2019-02-12T05:43:52.274Z,33.60
2019-02-12T05:46:19.488Z,30.40
2019-02-12T05:48:46.742Z,27.10
2019-02-12T05:51:13.956Z,29.20
2019-02-12T05:53:41.207Z,21.13
2019-02-12T05:56:08.433Z,22.80
2019-02-12T05:58:35.773Z,30.07
2019-02-12T06:01:03.385Z,33.73
2019-02-12T06:03:30.737Z,35.67
2019-02-12T06:05:58.316Z,30.17
2019-02-12T06:08:25.663Z,54.83
2019-02-12T06:10:52.990Z,36.97
2019-02-12T06:13:20.245Z,36.00
2019-02-12T06:15:47.812Z,37.23
2019-02-12T06:18:15.061Z,34.20
2019-02-12T06:20:42.286Z,42.93
2019-02-12T06:23:09.520Z,44.23
2019-02-12T06:25:36.751Z,44.50
2019-02-12T06:28:04.305Z,46.50
2019-02-12T06:30:31.586Z,40.93
2019-02-12T06:33:07.184Z,46.33
2019-02-12T06:35:27.937Z,40.07
2019-02-12T06:37:55.166Z,46.77
2019-02-12T06:40:22.679Z,49.10
2019-02-12T06:42:49.913Z,43.73
2019-02-12T06:45:17.141Z,47.23
2019-02-12T06:47:44.366Z,50.67
2019-02-12T06:50:11.893Z,43.63
2019-02-12T06:52:39.107Z,48.83
2019-02-12T06:55:07.327Z,45.20
2019-02-12T06:57:34.595Z,43.13
2019-02-12T07:00:01.833Z,47.73
2019-02-12T07:03:05.601Z,53.10
2019-02-12T07:05:32.873Z,46.17
2019-02-12T07:08:45.378Z,42.53
2019-02-12T07:11:24.272Z,37.73
2019-02-12T07:14:21.872Z,41.87
2019-02-12T07:17:31.015Z,40.70
2019-02-12T07:20:22.729Z,37.00
2019-02-12T07:23:30.489Z,36.83
2019-02-12T07:26:42.529Z,36.37
2019-02-12T07:30:01.349Z,41.57
2019-02-12T07:33:13.299Z,39.77
2019-02-12T07:36:20.081Z,37.20
2019-02-12T07:39:13.600Z,41.83
2019-02-12T07:42:43.783Z,46.03
2019-02-12T07:45:39.955Z,42.40
2019-02-12T07:48:59.721Z,44.63
2019-02-12T07:51:41.979Z,47.57
2019-02-12T07:54:37.573Z,47.67
2019-02-12T07:57:58.570Z,41.93
2019-02-12T08:01:20.076Z,45.00
2019-02-12T08:04:45.363Z,42.43
2019-02-12T08:07:52.401Z,44.77
2019-02-12T08:10:53.539Z,44.90
2019-02-12T08:13:55.986Z,52.20
2019-02-12T08:17:04.089Z,33.63
2019-02-12T08:19:41.204Z,33.67
2019-02-12T08:22:35.333Z,35.83
2019-02-12T08:25:53.767Z,33.60
2019-02-12T08:28:54.499Z,39.03
2019-02-12T08:31:53.890Z,39.80
2019-02-12T08:35:24.149Z,40.10
2019-02-12T08:38:41.176Z,30.83
2019-02-12T08:41:46.383Z,31.07
2019-02-12T08:44:50.492Z,34.20
2019-02-12T08:47:59.692Z,38.57
2019-02-12T08:51:26.971Z,35.40
2019-02-12T08:54:29.560Z,36.17
2019-02-12T08:57:49.359Z,37.53
2019-02-12T09:00:54.636Z,32.67
2019-02-12T09:04:04.259Z,32.40
2019-02-12T09:07:11.021Z,31.10
2019-02-12T09:10:25.016Z,29.23
2019-02-12T09:13:21.981Z,29.93
2019-02-12T09:16:40.144Z,29.63
2019-02-12T09:19:16.831Z,27.17
2019-02-12T09:22:12.269Z,25.07
2019-02-12T09:25:06.319Z,23.63
2019-02-12T09:27:56.845Z,27.53
2019-02-12T09:31:01.872Z,25.30
2019-02-12T09:34:12.748Z,27.87
2019-02-12T09:37:16.616Z,22.20
2019-02-12T09:40:39.961Z,21.67
2019-02-12T09:44:04.469Z,20.87
2019-02-12T09:46:54.991Z,21.93
2019-02-12T09:49:50.045Z,16.97
2019-02-12T09:53:17.455Z,15.03
2019-02-12T09:56:06.160Z,11.37
2019-02-12T09:59:19.682Z,13.60
2019-02-12T10:02:03.695Z,13.13
2019-02-12T10:05:01.694Z,15.83
2019-02-12T10:07:48.495Z,14.27
2019-02-12T10:10:37.667Z,15.13
2019-02-12T10:13:19.329Z,10.03
2019-02-12T10:16:13.367Z,13.20
2019-02-12T10:19:37.819Z,16.77
2019-02-12T10:22:35.446Z,12.43
2019-02-12T10:25:15.319Z,14.07
2019-02-12T10:28:48.566Z,15.60
2019-02-12T10:31:41.064Z,13.47
2019-02-12T10:34:08.452Z,13.90
2019-02-12T10:36:35.669Z,12.27
2019-02-12T10:39:04.579Z,10.03
2019-02-12T10:41:31.795Z,13.67
2019-02-12T10:43:59.316Z,13.93
2019-02-12T10:46:26.594Z,11.57
2019-02-12T10:48:53.934Z,13.20
2019-02-12T10:51:21.148Z,13.07
2019-02-12T10:53:48.400Z,11.20
2019-02-12T10:56:15.619Z,12.27
2019-02-12T10:58:42.855Z,14.77
2019-02-12T11:01:10.226Z,15.73
2019-02-12T11:03:37.528Z,11.90
2019-02-12T11:06:04.756Z,17.90
2019-02-12T11:08:31.968Z,11.63
2019-02-12T11:10:59.216Z,14.87
2019-02-12T11:13:26.434Z,15.47
2019-02-12T11:15:53.663Z,10.33
2019-02-12T11:18:20.896Z,7.97
2019-02-12T11:20:48.117Z,7.90
2019-02-12T11:23:15.636Z,8.00
2019-02-12T11:25:43.203Z,10.30
2019-02-12T11:28:10.440Z,11.37
2019-02-12T11:30:37.738Z,8.73
2019-02-12T11:33:04.967Z,9.87
2019-02-12T11:35:32.215Z,5.93
2019-02-12T11:37:59.431Z,9.37
2019-02-12T11:40:27.036Z,6.93
2019-02-12T11:42:54.348Z,7.30
2019-02-12T11:45:21.709Z,9.17
2019-02-12T11:47:48.988Z,5.63
2019-02-12T11:50:16.240Z,7.80
2019-02-12T11:52:43.792Z,5.47
2019-02-12T11:55:11.052Z,7.90
2019-02-12T11:57:38.264Z,9.57
2019-02-12T12:00:08.510Z,6.63
2019-02-12T12:02:41.791Z,9.60
2019-02-12T12:05:05.604Z,10.00
2019-02-12T12:07:32.913Z,7.97
2019-02-12T12:10:00.243Z,6.40
2019-02-12T12:12:27.539Z,5.73
2019-02-12T12:14:54.793Z,10.37
2019-02-12T12:17:22.020Z,8.47
2019-02-12T12:19:49.604Z,6.43
2019-02-12T12:22:16.835Z,8.47
2019-02-12T12:24:51.308Z,10.53
2019-02-12T12:27:13.268Z,7.93
2019-02-12T12:29:40.644Z,9.13
2019-02-12T12:32:07.880Z,8.00
2019-02-12T12:34:35.371Z,7.83
2019-02-12T12:37:02.945Z,5.57
2019-02-12T12:39:30.276Z,5.60
2019-02-12T12:41:57.883Z,5.73
2019-02-12T12:44:25.189Z,5.97
2019-02-12T12:46:52.488Z,5.73
2019-02-12T12:49:19.708Z,6.77
2019-02-12T12:51:46.942Z,6.90
2019-02-12T12:54:14.251Z,6.40
2019-02-12T12:56:41.476Z,8.63
2019-02-12T12:59:08.696Z,5.90
2019-02-12T13:01:35.919Z,8.10
2019-02-12T13:04:03.132Z,8.43
2019-02-12T13:06:30.376Z,8.43
2019-02-12T13:08:57.636Z,12.10
2019-02-12T13:11:26.669Z,11.40
2019-02-12T13:13:54.099Z,9.03
2019-02-12T13:16:21.316Z,6.67
2019-02-12T13:18:48.531Z,10.20
2019-02-12T13:21:16.123Z,9.10
2019-02-12T13:23:43.340Z,7.37
2019-02-12T13:26:10.587Z,7.17
2019-02-12T13:28:37.805Z,6.10
2019-02-12T13:31:05.048Z,7.07
2019-02-12T13:33:32.276Z,6.87
2019-02-12T13:35:59.525Z,6.83
2019-02-12T13:38:26.749Z,7.87
2019-02-12T13:40:54.017Z,6.73
2019-02-12T13:43:21.244Z,4.50
2019-02-12T13:45:48.483Z,4.50
2019-02-12T13:48:15.700Z,11.63
2019-02-12T13:50:43.249Z,8.20
2019-02-12T13:53:10.468Z,6.60
2019-02-12T13:55:37.989Z,9.63
2019-02-12T13:58:05.217Z,8.77
2019-02-12T14:00:32.427Z,7.53
2019-02-12T14:02:59.651Z,6.63
2019-02-12T14:05:26.896Z,8.07
2019-02-12T14:07:54.194Z,4.83
2019-02-12T14:10:21.399Z,6.83
2019-02-12T14:12:48.940Z,5.23
2019-02-12T14:15:16.159Z,7.83
2019-02-12T14:17:43.379Z,5.47
2019-02-12T14:20:11.780Z,5.13
2019-02-12T14:22:39.385Z,9.77
2019-02-12T14:25:07.088Z,4.97
2019-02-12T14:27:34.329Z,8.57
2019-02-12T14:30:01.653Z,10.13
2019-02-12T14:32:29.292Z,9.37
2019-02-12T14:34:56.530Z,4.53
2019-02-12T14:37:23.763Z,7.13
2019-02-12T14:39:50.992Z,4.63
2019-02-12T14:42:18.616Z,9.03
2019-02-12T14:44:45.935Z,7.17
2019-02-12T14:47:13.416Z,5.87
2019-02-12T14:49:40.645Z,6.47
2019-02-12T14:52:08.324Z,5.70
2019-02-12T14:54:35.561Z,6.73
2019-02-12T14:57:02.950Z,7.70
2019-02-12T14:59:30.185Z,9.77
2019-02-12T15:01:57.768Z,5.73
2019-02-12T15:04:25.304Z,3.63
2019-02-12T15:06:52.565Z,7.37
2019-02-12T15:09:19.815Z,4.67
2019-02-12T15:11:47.072Z,4.87
2019-02-12T15:14:14.316Z,9.63
2019-02-12T15:16:41.571Z,8.77
2019-02-12T15:19:08.811Z,6.63
2019-02-12T15:21:36.073Z,8.77
2019-02-12T15:24:03.308Z,13.37
2019-02-12T15:26:30.538Z,7.67
2019-02-12T15:28:58.136Z,7.93
2019-02-12T15:31:25.405Z,10.73
2019-02-12T15:33:52.750Z,8.07
2019-02-12T15:36:20.300Z,8.10
2019-02-12T15:38:47.552Z,7.73
2019-02-12T15:41:14.875Z,6.23
2019-02-12T15:43:42.113Z,7.53
2019-02-12T15:46:09.352Z,6.97
2019-02-12T15:48:36.587Z,10.93
2019-02-12T15:51:03.819Z,11.60
2019-02-12T15:53:31.383Z,7.90
2019-02-12T15:55:58.624Z,12.20
2019-02-12T15:58:26.418Z,10.13
2019-02-12T16:00:54.992Z,6.57
2019-02-12T16:03:22.224Z,9.43
2019-02-12T16:05:49.455Z,11.10
2019-02-12T16:08:17.031Z,9.97
2019-02-12T16:10:44.584Z,9.70
2019-02-12T16:13:13.563Z,5.63
2019-02-12T16:15:42.982Z,8.40
2019-02-12T16:18:10.125Z,14.57
2019-02-12T16:20:37.436Z,10.50
2019-02-12T16:23:04.944Z,8.90
2019-02-12T16:25:32.182Z,6.63
2019-02-12T16:27:59.425Z,10.53
2019-02-12T16:30:26.658Z,5.97
2019-02-12T16:32:53.891Z,10.57
2019-02-12T16:35:21.126Z,7.80
2019-02-12T16:37:48.380Z,10.33
2019-02-12T16:40:15.621Z,6.40
2019-02-12T16:42:42.970Z,9.57
2019-02-12T16:45:19.683Z,9.70
2019-02-12T16:47:46.956Z,9.10
2019-02-12T16:50:14.196Z,8.53
2019-02-12T16:52:41.425Z,14.47
2019-02-12T16:55:09.479Z,12.67
2019-02-12T16:57:38.033Z,11.03
2019-02-12T17:00:08.830Z,9.97
2019-02-12T17:02:36.062Z,14.10
2019-02-12T17:05:03.747Z,9.73
2019-02-12T17:07:31.042Z,14.67
2019-02-12T17:09:58.445Z,16.83
2019-02-12T17:12:25.676Z,17.67
2019-02-12T17:14:52.921Z,11.30
2019-02-12T17:17:20.443Z,14.00
2019-02-12T17:19:47.680Z,13.93
2019-02-12T17:22:14.920Z,16.57
2019-02-12T17:24:42.167Z,12.07
2019-02-12T17:27:09.407Z,15.00
2019-02-12T17:29:36.646Z,13.73
2019-02-12T17:32:03.877Z,12.97
2019-02-12T17:34:31.428Z,14.07
2019-02-12T17:36:58.666Z,14.53
2019-02-12T17:39:26.262Z,11.63
2019-02-12T17:41:53.686Z,11.70
2019-02-12T17:44:20.924Z,15.67
2019-02-12T17:46:48.168Z,12.10
2019-02-12T17:49:15.413Z,13.83
2019-02-12T17:51:43.004Z,11.93
2019-02-12T17:54:10.912Z,13.30
2019-02-12T17:56:38.144Z,15.90
2019-02-12T17:59:05.359Z,16.17
2019-02-12T18:01:32.596Z,17.47
2019-02-12T18:03:59.824Z,17.17
2019-02-12T18:06:27.045Z,16.27
2019-02-12T18:08:55.201Z,18.43
2019-02-12T18:11:22.436Z,18.27
2019-02-12T18:13:50.859Z,19.23
2019-02-12T18:16:18.091Z,20.40
2019-02-12T18:18:45.328Z,20.10
2019-02-12T18:21:12.559Z,18.83
2019-02-12T18:23:40.167Z,19.67
2019-02-12T18:26:07.395Z,21.80
2019-02-12T18:28:34.720Z,30.90
2019-02-12T18:31:01.956Z,23.80
2019-02-12T18:33:29.187Z,20.50
2019-02-12T18:35:56.415Z,21.50
2019-02-12T18:38:23.636Z,22.77
2019-02-12T18:40:50.861Z,30.67
2019-02-12T18:43:18.088Z,28.80
2019-02-12T18:45:45.307Z,26.97
2019-02-12T18:48:12.864Z,27.30
2019-02-12T18:50:40.116Z,30.33
2019-02-12T18:53:07.427Z,27.80
2019-02-12T18:55:34.776Z,28.23
2019-02-12T18:58:02.204Z,25.57
2019-02-12T19:00:29.876Z,25.47
2019-02-12T19:02:57.091Z,25.87
2019-02-12T19:05:24.336Z,27.07
2019-02-12T19:07:51.903Z,28.37
2019-02-12T19:10:19.574Z,21.23
2019-02-12T19:12:46.779Z,26.10
2019-02-12T19:15:14.575Z,28.90
2019-02-12T19:17:43.808Z,28.77
2019-02-12T19:20:11.953Z,28.67
2019-02-12T19:22:39.067Z,29.33
2019-02-12T19:25:07.420Z,27.97
2019-02-12T19:27:34.655Z,23.30
2019-02-12T19:30:02.039Z,20.10
2019-02-12T19:32:29.540Z,20.63
2019-02-12T19:34:57.210Z,24.47
2019-02-12T19:37:24.781Z,22.80
2019-02-12T19:39:52.021Z,21.43
2019-02-12T19:42:19.336Z,24.70
2019-02-12T19:44:47.184Z,27.03
2019-02-12T19:47:14.408Z,24.40
2019-02-12T19:49:41.784Z,29.47
2019-02-12T19:52:09.024Z,30.17
2019-02-12T19:54:36.267Z,33.40
2019-02-12T19:57:03.485Z,36.07
2019-02-12T19:59:30.736Z,32.53
2019-02-12T20:01:57.960Z,34.23
2019-02-12T20:04:25.180Z,25.27
2019-02-12T20:06:52.413Z,25.27
2019-02-12T20:09:21.557Z,24.17
2019-02-12T20:11:48.872Z,28.80
2019-02-12T20:14:16.099Z,29.90
2019-02-12T20:16:43.351Z,21.67
2019-02-12T20:19:10.590Z,27.83
2019-02-12T20:21:37.843Z,28.90
2019-02-12T20:24:05.072Z,27.80
2019-02-12T20:26:32.534Z,25.07
2019-02-12T20:29:00.168Z,27.30
2019-02-12T20:31:27.679Z,21.77
2019-02-12T20:33:57.085Z,31.07
2019-02-12T20:36:24.468Z,25.57
2019-02-12T20:38:52.002Z,19.20
2019-02-12T20:41:19.242Z,25.13
2019-02-12T20:43:46.477Z,20.70
2019-02-12T20:46:13.819Z,22.53
2019-02-12T20:48:41.143Z,20.83
2019-02-12T20:51:08.387Z,31.00
2019-02-12T20:53:35.916Z,26.67
2019-02-12T20:56:03.475Z,24.67
2019-02-12T20:58:30.700Z,22.23
2019-02-12T21:00:57.953Z,22.73
2019-02-12T21:03:25.173Z,20.33
2019-02-12T21:05:52.420Z,27.83
2019-02-12T21:08:20.053Z,21.67
2019-02-12T21:10:47.470Z,28.97
2019-02-12T21:13:14.957Z,23.87
2019-02-12T21:15:42.265Z,26.40
2019-02-12T21:18:09.567Z,27.97
2019-02-12T21:20:36.704Z,27.37
2019-02-12T21:23:04.288Z,29.67
2019-02-12T21:25:31.512Z,27.07
2019-02-12T21:27:58.752Z,29.57
2019-02-12T21:30:25.993Z,27.23
2019-02-12T21:32:53.225Z,29.53
2019-02-12T21:35:20.439Z,30.93
2019-02-12T21:37:47.663Z,36.13
2019-02-12T21:40:17.239Z,28.40
2019-02-12T21:42:44.524Z,26.37
2019-02-12T21:45:12.782Z,32.20
2019-02-12T21:47:40.471Z,30.90
2019-02-12T21:50:07.711Z,30.70
2019-02-12T21:52:34.960Z,35.57
2019-02-12T21:55:02.183Z,31.33
2019-02-12T21:57:31.672Z,31.87
2019-02-12T21:59:58.597Z,35.13
2019-02-12T22:02:25.843Z,39.20
2019-02-12T22:04:53.059Z,38.50
2019-02-12T22:07:20.311Z,34.97
2019-02-12T22:09:47.551Z,33.33
2019-02-12T22:12:14.801Z,27.30
2019-02-12T22:14:42.399Z,30.17
2019-02-12T22:17:09.661Z,30.27
2019-02-12T22:19:37.223Z,29.70
2019-02-12T22:22:04.484Z,29.47
2019-02-12T22:24:31.720Z,25.63
2019-02-12T22:26:58.970Z,26.43
2019-02-12T22:29:26.239Z,29.97
2019-02-12T22:31:53.480Z,29.57
2019-02-12T22:34:20.697Z,30.57
2019-02-12T22:36:47.935Z,31.87
2019-02-12T22:39:15.161Z,28.20
2019-02-12T22:41:42.407Z,33.77
2019-02-12T22:44:09.629Z,30.60
2019-02-12T22:46:36.892Z,31.90
2019-02-12T22:49:04.349Z,29.20
2019-02-12T22:51:31.595Z,31.50
2019-02-12T22:53:59.252Z,28.07
2019-02-12T22:56:26.479Z,32.07
2019-02-12T22:58:53.713Z,30.70
2019-02-12T23:01:31.416Z,30.17
2019-02-12T23:03:58.637Z,33.57
2019-02-12T23:06:25.861Z,31.07
2019-02-12T23:08:53.075Z,35.17
2019-02-12T23:11:20.291Z,33.00
2019-02-12T23:13:47.511Z,34.67
2019-02-12T23:16:15.074Z,34.73
2019-02-12T23:18:42.375Z,35.67
2019-02-12T23:21:09.654Z,41.73
2019-02-12T23:23:36.879Z,48.37
2019-02-12T23:26:04.095Z,34.30
2019-02-12T23:28:31.315Z,33.10
2019-02-12T23:30:58.456Z,33.20
2019-02-12T23:33:25.671Z,35.30
2019-02-12T23:35:52.900Z,36.23
2019-02-12T23:38:20.231Z,31.70
2019-02-12T23:40:47.843Z,42.17
2019-02-12T23:43:15.461Z,40.23
2019-02-12T23:45:42.673Z,35.07
2019-02-12T23:48:09.920Z,34.17
2019-02-12T23:50:37.158Z,35.80
2019-02-12T23:53:04.399Z,37.60
2019-02-12T23:55:31.625Z,35.47
2019-02-12T23:58:05.747Z,32.93
